Columbia Regional Airport
KCOU : now visible

Airfield :











YOU CAN JOIN US ON...

 
LOGIN :

Register | Disclaimer

   EN    FR    IT 

 









Legend :    VFR   Marginal VFR   IFR   Intensive IFR   Very Intensive IFR
Visi :
Ceiling :
>= 8 km
>= 3000ft
5 to 8 km
1000 to 3000 ft
1500m to 5 km
500 to 1000 ft
800 to 1500m
200 to 500 ft
< 800m
< 200 ft
Symbols :   Thunderstorms  Fog  Heavy snow  Heavy precipitations  Wind > 20 kt






- Airport Elevation : 889 ft
- IATA code : COU


KCOU - Columbia Regional

CURRENT METAR :
  • 211754Z 30011KT 7SM FEW025 OVC031 12/05 A3014 RMK AO2 SLP205 T01220050 10122 20083 50006

EXPIRED METARs :
  • 211654Z 30013G19KT 9SM SCT023 OVC029 12/05 A3014 RMK AO2 SLP206 T01170050
  • 211614Z 28012G18KT 10SM SCT023 OVC029 11/05 A3014 RMK AO2 T01110050
  • 211554Z 28010KT 10SM SCT023 OVC029 10/04 A3013 RMK AO2 SLP203 T01000044

TAF KCOU
Valid from the 21 at 18:00 until the 22 at 18:00 UTC


211720Z 2118/2218 29014G22KT P6SM BKN025
FM220000 31008KT P6SM BKN035
KZKC FIR / North America



MET'MAP, your aeronautical weather chart ! - Copyright ORBIFLY December 2007 - Disclaimer

ORBIFLY MET'MAP TEAM :

Programming & Development : Alexandra Zaïnal
Concept & original design : Baudouin d'Aumeries
Assistance for programming : Marc-Olivier Méhu
Technical & hardware support : Manuel Goepfert

Contact : metmap@orbifly.com




SOURCES & CREDITS :

   NOAA       Earth
Advisory